Terminal Aerodrome Forecast
Issued by NWS

Home | Current Version | Previous Version | Text Only | Print | Product List | Glossary On
Versions: 1 2 3 4 5 6 7 8 9 10 11 12 13 14 15 16 17 18 19 20 21
000
FTUS44 KBMX 041700
TAFEET
TAF
KEET 041739Z 0418/0518 20010G16KT 6SM BR OVC015
     FM042300 20008KT 5SM SHRA OVC020
     FM050500 30007KT 4SM -RA BR OVC007
     FM051600 34014KT 2SM -FZRA BR OVC007=

USA.gov is the U.S. government's official web portal to all federal, state and local government web resources and services.